createdAt,value
2017-08-06T00:00:46.421Z,6.20
2017-08-06T00:03:14.750Z,6.87
2017-08-06T00:05:42.478Z,6.47
2017-08-06T00:08:10.494Z,7.80
2017-08-06T00:10:38.419Z,7.83
2017-08-06T00:13:05.977Z,6.87
2017-08-06T00:15:34.579Z,5.20
2017-08-06T00:18:02.107Z,6.73
2017-08-06T00:20:30.435Z,9.80
2017-08-06T00:22:57.958Z,9.00
2017-08-06T00:25:26.274Z,7.37
2017-08-06T00:27:53.803Z,6.23
2017-08-06T00:30:21.366Z,17.50
2017-08-06T00:32:48.903Z,5.63
2017-08-06T00:35:17.231Z,8.90
2017-08-06T00:37:44.761Z,5.97
2017-08-06T00:40:12.311Z,6.50
2017-08-06T00:42:40.599Z,6.43
2017-08-06T00:45:08.159Z,9.10
2017-08-06T00:47:35.694Z,10.87
2017-08-06T00:50:04.011Z,9.50
2017-08-06T00:52:31.539Z,8.80
2017-08-06T00:54:59.860Z,8.80
2017-08-06T00:57:27.398Z,9.23
2017-08-06T00:59:54.959Z,7.30
2017-08-06T01:02:22.483Z,7.57
2017-08-06T01:04:50.031Z,7.87
2017-08-06T01:07:17.554Z,9.13
2017-08-06T01:09:45.074Z,11.10
2017-08-06T01:12:13.390Z,15.20
2017-08-06T01:14:40.910Z,7.00
2017-08-06T01:17:09.228Z,11.23
2017-08-06T01:19:36.756Z,9.53
2017-08-06T01:22:04.310Z,9.80
2017-08-06T01:24:31.838Z,8.33
2017-08-06T01:26:59.383Z,8.53
2017-08-06T01:29:26.910Z,7.03
2017-08-06T01:31:54.473Z,6.10
2017-08-06T01:34:22.008Z,14.07
2017-08-06T01:36:50.326Z,10.40
2017-08-06T01:39:17.860Z,11.20
2017-08-06T01:41:45.414Z,9.77
2017-08-06T01:44:12.954Z,7.27
2017-08-06T01:46:40.513Z,8.57
2017-08-06T01:49:08.838Z,7.80
2017-08-06T01:51:36.400Z,10.83
2017-08-06T01:54:03.932Z,7.90
2017-08-06T01:56:31.483Z,8.50
2017-08-06T01:58:59.780Z,11.37
2017-08-06T02:01:27.331Z,7.40
2017-08-06T02:03:54.867Z,11.77
2017-08-06T02:06:22.426Z,7.80
2017-08-06T02:08:49.966Z,7.03
2017-08-06T02:11:17.515Z,14.10
2017-08-06T02:13:45.049Z,8.47
2017-08-06T02:16:12.632Z,10.90
2017-08-06T02:18:40.170Z,7.50
2017-08-06T02:21:07.720Z,13.63
2017-08-06T02:23:35.267Z,9.90
2017-08-06T02:26:02.795Z,6.90
2017-08-06T02:28:30.359Z,7.60
2017-08-06T02:30:58.659Z,8.93
2017-08-06T02:33:26.211Z,9.47
2017-08-06T02:35:53.741Z,8.40
2017-08-06T02:38:21.299Z,8.17
2017-08-06T02:40:48.840Z,6.97
2017-08-06T02:43:16.398Z,11.60
2017-08-06T02:45:43.922Z,9.40
2017-08-06T02:48:11.470Z,7.30
2017-08-06T02:50:38.994Z,7.77
2017-08-06T02:53:06.537Z,6.70
2017-08-06T02:55:34.069Z,7.77
2017-08-06T02:58:01.619Z,6.90
2017-08-06T03:00:29.147Z,8.43
2017-08-06T03:02:56.702Z,9.77
2017-08-06T03:05:24.240Z,9.13
2017-08-06T03:07:51.798Z,9.63
2017-08-06T03:10:19.337Z,13.83
2017-08-06T03:12:46.899Z,7.80
2017-08-06T03:15:14.430Z,9.30
2017-08-06T03:17:41.959Z,11.37
2017-08-06T03:20:09.503Z,8.97
2017-08-06T03:22:37.035Z,9.30
2017-08-06T03:25:04.586Z,11.80
2017-08-06T03:27:32.115Z,8.53
2017-08-06T03:30:00.439Z,8.33
2017-08-06T03:32:27.977Z,13.20
2017-08-06T03:34:55.526Z,9.40
2017-08-06T03:37:23.062Z,11.57
2017-08-06T03:39:51.373Z,8.73
2017-08-06T03:42:18.894Z,8.67
2017-08-06T03:44:46.448Z,18.00
2017-08-06T03:47:13.984Z,10.57
2017-08-06T03:49:41.544Z,10.27
2017-08-06T03:52:09.075Z,5.97
2017-08-06T03:54:36.630Z,11.83
2017-08-06T03:57:04.161Z,9.80
2017-08-06T03:59:32.474Z,12.73
2017-08-06T04:02:00.003Z,9.60
2017-08-06T04:04:28.319Z,9.70
2017-08-06T04:06:55.846Z,10.73
2017-08-06T04:09:24.154Z,9.07
2017-08-06T04:11:51.683Z,9.07
2017-08-06T04:14:19.238Z,11.27
2017-08-06T04:16:47.534Z,13.73
2017-08-06T04:19:15.059Z,8.40
2017-08-06T04:21:43.375Z,8.73
2017-08-06T04:24:10.899Z,7.97
2017-08-06T04:26:39.224Z,13.33
2017-08-06T04:29:06.742Z,10.37
2017-08-06T04:31:35.067Z,10.60
2017-08-06T04:34:02.599Z,7.50
2017-08-06T04:36:30.151Z,7.20
2017-08-06T04:38:57.687Z,7.90
2017-08-06T04:41:25.238Z,8.70
2017-08-06T04:43:52.768Z,8.33
2017-08-06T04:46:20.318Z,8.63
2017-08-06T04:48:47.855Z,9.73
2017-08-06T04:51:15.411Z,6.57
2017-08-06T04:53:42.947Z,14.27
2017-08-06T04:56:10.497Z,8.43
2017-08-06T04:58:38.023Z,8.43
2017-08-06T05:01:05.571Z,7.40
2017-08-06T05:03:33.095Z,9.17
2017-08-06T05:06:01.412Z,10.93
2017-08-06T05:08:28.945Z,11.03
2017-08-06T05:10:56.499Z,13.97
2017-08-06T05:13:24.034Z,12.67
2017-08-06T05:15:51.587Z,12.20
2017-08-06T05:18:19.115Z,11.30
2017-08-06T05:20:46.643Z,16.10
2017-08-06T05:23:14.214Z,19.47
2017-08-06T05:25:41.745Z,25.60
2017-08-06T05:28:10.068Z,24.03
2017-08-06T05:30:37.608Z,24.50
2017-08-06T05:33:05.166Z,25.37
2017-08-06T05:35:32.695Z,28.03
2017-08-06T05:38:00.251Z,26.10
2017-08-06T05:40:27.782Z,17.50
2017-08-06T05:42:55.330Z,23.40
2017-08-06T05:45:22.864Z,20.53
2017-08-06T05:47:50.413Z,15.40
2017-08-06T05:50:17.951Z,14.37
2017-08-06T05:52:45.523Z,16.07
2017-08-06T05:55:13.060Z,12.50
2017-08-06T05:57:40.620Z,23.93
2017-08-06T06:00:08.938Z,16.40
2017-08-06T06:02:36.490Z,11.57
2017-08-06T06:05:04.027Z,10.63
2017-08-06T06:07:32.346Z,16.20
2017-08-06T06:09:59.870Z,10.47
2017-08-06T06:12:28.187Z,9.73
2017-08-06T06:14:55.710Z,6.97
2017-08-06T06:17:24.030Z,8.10
2017-08-06T06:19:51.718Z,9.83
2017-08-06T06:22:19.261Z,10.03
2017-08-06T06:24:46.815Z,10.63
2017-08-06T06:27:14.334Z,9.13
2017-08-06T06:29:42.644Z,7.37
2017-08-06T06:32:10.171Z,6.90
2017-08-06T06:34:38.487Z,5.77
2017-08-06T06:37:06.351Z,5.30
2017-08-06T06:39:33.916Z,6.37
2017-08-06T06:42:01.451Z,7.60
2017-08-06T06:44:29.007Z,6.00
2017-08-06T06:46:56.532Z,5.13
2017-08-06T06:49:24.086Z,5.80
2017-08-06T06:51:51.619Z,5.00
2017-08-06T06:54:19.165Z,5.43
2017-08-06T06:56:46.696Z,6.33
2017-08-06T06:59:14.246Z,5.07
2017-08-06T07:01:42.548Z,10.97
2017-08-06T07:04:10.104Z,5.70
2017-08-06T07:06:37.639Z,6.43
2017-08-06T07:09:05.957Z,6.60
2017-08-06T07:11:33.479Z,5.40
2017-08-06T07:14:01.815Z,4.43
2017-08-06T07:16:29.346Z,4.90
2017-08-06T07:18:56.907Z,5.97
2017-08-06T07:21:24.440Z,5.07
2017-08-06T07:23:52.736Z,5.03
2017-08-06T07:26:20.289Z,4.93
2017-08-06T07:28:47.819Z,4.20
2017-08-06T07:31:15.375Z,5.33
2017-08-06T07:33:42.898Z,4.27
2017-08-06T07:36:10.448Z,4.90
2017-08-06T07:38:37.970Z,3.90
2017-08-06T07:41:06.295Z,5.97
2017-08-06T07:43:33.813Z,3.90
2017-08-06T07:46:02.126Z,3.97
2017-08-06T07:48:29.660Z,3.50
2017-08-06T07:50:57.220Z,4.60
2017-08-06T07:53:24.750Z,5.90
2017-08-06T07:55:52.291Z,2.80
2017-08-06T07:58:19.821Z,4.53
2017-08-06T08:00:47.399Z,3.87
2017-08-06T08:03:14.920Z,3.30
2017-08-06T08:05:42.471Z,5.03
2017-08-06T08:08:10.007Z,4.67
2017-08-06T08:10:37.559Z,2.83
2017-08-06T08:13:05.082Z,5.43
2017-08-06T08:15:32.631Z,3.43
2017-08-06T08:18:00.158Z,3.23
2017-08-06T08:20:27.683Z,3.87
2017-08-06T08:22:55.231Z,4.80
2017-08-06T08:25:22.763Z,3.40
2017-08-06T08:27:50.328Z,4.00
2017-08-06T08:30:17.846Z,5.37
2017-08-06T08:32:46.159Z,3.80
2017-08-06T08:35:13.689Z,6.43
2017-08-06T08:37:42.011Z,5.20
2017-08-06T08:40:09.534Z,4.30
2017-08-06T08:42:37.851Z,4.00
2017-08-06T08:45:05.372Z,3.20
2017-08-06T08:47:33.688Z,7.27
2017-08-06T08:50:01.213Z,3.47
2017-08-06T08:52:29.523Z,3.10
2017-08-06T08:54:57.051Z,2.90
2017-08-06T08:57:24.602Z,3.70
2017-08-06T08:59:52.892Z,2.70
2017-08-06T09:02:20.443Z,2.93
2017-08-06T09:04:48.737Z,4.33
2017-08-06T09:07:16.286Z,5.23
2017-08-06T09:09:43.810Z,4.20
2017-08-06T09:12:11.366Z,4.67
2017-08-06T09:14:38.890Z,4.10
2017-08-06T09:17:06.438Z,5.67
2017-08-06T09:19:33.963Z,3.07
2017-08-06T09:22:02.275Z,4.03
2017-08-06T09:24:29.798Z,8.53
2017-08-06T09:26:58.142Z,4.70
2017-08-06T09:29:25.671Z,4.97
2017-08-06T09:31:53.196Z,7.13
2017-08-06T09:34:21.512Z,7.90
2017-08-06T09:36:49.039Z,4.20
2017-08-06T09:39:17.361Z,6.30
2017-08-06T09:41:44.878Z,6.00
2017-08-06T09:44:13.189Z,4.37
2017-08-06T09:46:40.716Z,5.43
2017-08-06T09:49:09.035Z,4.43
2017-08-06T09:51:36.567Z,6.10
2017-08-06T09:54:04.120Z,6.33
2017-08-06T09:56:31.643Z,4.80
2017-08-06T09:58:59.182Z,4.30
2017-08-06T10:01:26.707Z,3.73
2017-08-06T10:03:54.271Z,6.97
2017-08-06T10:06:21.795Z,5.03
2017-08-06T10:08:49.357Z,7.00
2017-08-06T10:11:16.903Z,4.33
2017-08-06T10:13:44.565Z,4.63
2017-08-06T10:16:12.094Z,3.60
2017-08-06T10:18:39.776Z,5.13
2017-08-06T10:21:07.328Z,4.57
2017-08-06T10:23:34.978Z,5.87
2017-08-06T10:29:03.422Z,3.83
2017-08-06T10:31:30.955Z,3.73
2017-08-06T10:33:58.479Z,3.53
2017-08-06T10:36:26.026Z,4.33
2017-08-06T10:38:53.547Z,2.97
2017-08-06T10:41:21.096Z,6.30
2017-08-06T10:43:48.625Z,3.87
2017-08-06T10:46:16.176Z,3.60
2017-08-06T10:48:43.702Z,4.07
2017-08-06T10:51:12.014Z,3.43
2017-08-06T10:53:39.551Z,7.47
2017-08-06T10:56:07.863Z,4.67
2017-08-06T10:58:37.752Z,3.83
2017-08-06T11:01:05.419Z,7.00
2017-08-06T11:03:32.948Z,6.17
2017-08-06T11:06:00.501Z,3.83
2017-08-06T11:08:28.022Z,4.70
2017-08-06T11:10:55.582Z,3.50
2017-08-06T11:13:23.115Z,3.43
2017-08-06T11:15:50.659Z,3.90
2017-08-06T11:18:18.179Z,3.20
2017-08-06T11:20:45.726Z,3.80
2017-08-06T11:23:13.246Z,3.50
2017-08-06T11:25:40.793Z,4.97
2017-08-06T11:28:09.085Z,4.60
2017-08-06T11:30:36.644Z,3.40
2017-08-06T11:33:04.395Z,4.00
2017-08-06T11:35:32.726Z,4.80
2017-08-06T11:38:00.247Z,5.20
2017-08-06T11:40:27.798Z,4.77
2017-08-06T11:42:55.325Z,4.60
2017-08-06T11:45:22.867Z,3.67
2017-08-06T11:47:50.423Z,4.90
2017-08-06T11:50:17.946Z,2.80
2017-08-06T11:52:45.499Z,2.93
2017-08-06T11:55:13.019Z,3.47
2017-08-06T11:57:40.575Z,4.23
2017-08-06T12:00:08.098Z,2.87
2017-08-06T12:02:35.652Z,4.27
2017-08-06T12:05:03.178Z,3.80
2017-08-06T12:07:31.499Z,3.80
2017-08-06T12:09:59.036Z,4.77
2017-08-06T12:12:26.586Z,3.50
2017-08-06T12:14:54.884Z,3.00
2017-08-06T12:17:22.441Z,3.90
2017-08-06T12:19:49.974Z,3.63
2017-08-06T12:22:18.291Z,4.80
2017-08-06T12:24:45.822Z,4.13
2017-08-06T12:27:13.384Z,4.37
2017-08-06T12:29:40.918Z,4.30
2017-08-06T12:32:08.486Z,2.70
2017-08-06T12:34:36.779Z,4.50
2017-08-06T12:37:05.104Z,4.03
2017-08-06T12:39:32.641Z,3.17
2017-08-06T12:42:00.195Z,2.90
2017-08-06T12:44:27.724Z,3.23
2017-08-06T12:46:56.072Z,2.80
2017-08-06T12:49:23.601Z,3.87
2017-08-06T12:51:51.126Z,3.10
2017-08-06T12:54:19.443Z,3.67
2017-08-06T12:56:46.967Z,3.97
2017-08-06T12:59:15.283Z,5.70
2017-08-06T13:01:42.810Z,6.17
2017-08-06T13:04:10.358Z,2.40
2017-08-06T13:06:38.650Z,3.40
2017-08-06T13:09:06.194Z,3.83
2017-08-06T13:11:33.716Z,3.20
2017-08-06T13:14:01.266Z,3.60
2017-08-06T13:16:28.792Z,3.13
2017-08-06T13:18:56.351Z,4.00
2017-08-06T13:21:23.883Z,2.93
2017-08-06T13:23:52.208Z,3.43
2017-08-06T13:26:19.724Z,4.33
2017-08-06T13:28:47.278Z,4.50
2017-08-06T13:31:15.579Z,3.47
2017-08-06T13:33:43.136Z,3.10
2017-08-06T13:36:10.662Z,3.03
2017-08-06T13:38:38.210Z,3.50
2017-08-06T13:41:05.737Z,4.43
2017-08-06T13:43:33.280Z,4.03
2017-08-06T13:46:00.811Z,3.57
2017-08-06T13:48:29.122Z,3.07
2017-08-06T13:50:56.650Z,4.80
2017-08-06T13:53:24.980Z,2.80
2017-08-06T13:55:52.516Z,3.30
2017-08-06T13:58:20.041Z,3.97
2017-08-06T14:00:48.358Z,3.17
2017-08-06T14:03:15.884Z,4.43
2017-08-06T14:05:44.204Z,4.90
2017-08-06T14:08:11.736Z,3.50
2017-08-06T14:10:39.287Z,2.63
2017-08-06T14:13:07.579Z,3.83
2017-08-06T14:15:42.976Z,2.80
2017-08-06T14:18:14.693Z,2.80
2017-08-06T14:20:44.263Z,3.33
2017-08-06T14:23:20.812Z,3.10
2017-08-06T14:25:48.355Z,2.83
2017-08-06T14:28:21.472Z,3.17
2017-08-06T14:30:49.035Z,3.10
2017-08-06T14:33:16.568Z,2.73
2017-08-06T14:35:44.131Z,4.83
2017-08-06T14:38:11.660Z,4.80
2017-08-06T14:40:39.213Z,3.27
2017-08-06T14:43:06.738Z,4.10
2017-08-06T14:45:35.054Z,2.80
2017-08-06T14:48:02.578Z,3.40
2017-08-06T14:50:30.900Z,4.70
2017-08-06T14:52:58.422Z,4.50
2017-08-06T14:55:26.740Z,3.07
2017-08-06T14:57:54.274Z,3.83
2017-08-06T15:00:21.832Z,3.47
2017-08-06T15:02:49.354Z,3.30
2017-08-06T15:05:16.908Z,3.40
2017-08-06T15:07:45.641Z,2.90
2017-08-06T15:10:13.218Z,3.40
2017-08-06T15:12:40.740Z,2.87
2017-08-06T15:15:09.030Z,6.40
2017-08-06T15:17:38.654Z,3.27
2017-08-06T15:20:06.239Z,5.10
2017-08-06T15:22:33.790Z,3.37
2017-08-06T15:25:01.314Z,3.70
2017-08-06T15:27:29.634Z,3.90
2017-08-06T15:29:57.154Z,4.30
2017-08-06T15:32:25.476Z,3.73
2017-08-06T15:34:53.049Z,5.53
2017-08-06T15:37:20.635Z,4.33
2017-08-06T15:39:48.926Z,3.70
2017-08-06T15:42:17.242Z,4.67
2017-08-06T15:44:44.783Z,2.63
2017-08-06T15:47:12.342Z,2.93
2017-08-06T15:49:39.867Z,3.80
2017-08-06T15:52:07.418Z,2.50
2017-08-06T15:54:34.957Z,3.50
2017-08-06T15:57:02.507Z,3.00
2017-08-06T15:59:30.038Z,3.60
2017-08-06T16:01:57.592Z,2.60
2017-08-06T16:04:25.125Z,4.63
2017-08-06T16:06:52.676Z,3.20
2017-08-06T16:09:20.198Z,3.73
2017-08-06T16:11:47.740Z,3.63
2017-08-06T16:14:15.266Z,3.40
2017-08-06T16:16:43.608Z,2.80
2017-08-06T16:19:11.127Z,3.37
2017-08-06T16:21:38.655Z,2.90
2017-08-06T16:24:06.208Z,3.23
2017-08-06T16:26:33.739Z,3.70
2017-08-06T16:29:01.284Z,3.30
2017-08-06T16:31:28.811Z,3.13
2017-08-06T16:33:57.136Z,5.33
2017-08-06T16:36:24.663Z,3.90
2017-08-06T16:38:52.209Z,3.03
2017-08-06T16:41:20.499Z,3.90
2017-08-06T16:43:48.058Z,3.40
2017-08-06T16:46:15.585Z,4.10
2017-08-06T16:48:43.135Z,3.40
2017-08-06T16:51:10.655Z,2.93
2017-08-06T16:53:38.207Z,3.10
2017-08-06T16:56:05.734Z,2.80
2017-08-06T16:58:34.051Z,3.67
2017-08-06T17:01:01.574Z,3.67
2017-08-06T17:03:29.892Z,2.50
2017-08-06T17:05:57.418Z,3.23
2017-08-06T17:08:24.990Z,3.40
2017-08-06T17:10:52.518Z,4.00
2017-08-06T17:13:20.224Z,2.90
2017-08-06T17:15:49.028Z,2.63
2017-08-06T17:18:17.411Z,4.63
2017-08-06T17:20:44.939Z,3.63
2017-08-06T17:23:12.470Z,2.80
2017-08-06T17:25:40.791Z,2.50
2017-08-06T17:28:08.332Z,6.00
2017-08-06T17:30:35.891Z,3.23
2017-08-06T17:33:04.188Z,2.63
2017-08-06T17:35:31.748Z,2.80
2017-08-06T17:37:59.278Z,4.70
2017-08-06T17:40:27.610Z,3.10
2017-08-06T17:42:55.136Z,3.23
2017-08-06T17:45:22.695Z,3.27
2017-08-06T17:47:50.257Z,3.00
2017-08-06T17:50:17.809Z,3.10
2017-08-06T17:52:45.343Z,2.53
2017-08-06T17:55:13.659Z,5.77
2017-08-06T17:57:41.187Z,4.50
2017-08-06T18:00:09.510Z,3.50
2017-08-06T18:02:37.044Z,3.63
2017-08-06T18:05:04.594Z,2.70
2017-08-06T18:07:32.880Z,3.17
2017-08-06T18:10:00.463Z,3.00
2017-08-06T18:12:27.994Z,3.80
2017-08-06T18:14:55.549Z,4.60
2017-08-06T18:17:23.837Z,3.30
2017-08-06T18:19:51.395Z,2.97
2017-08-06T18:22:18.913Z,3.40
2017-08-06T18:24:46.495Z,3.80
2017-08-06T18:27:14.790Z,4.13
2017-08-06T18:29:42.323Z,3.40
2017-08-06T18:32:10.638Z,3.90
2017-08-06T18:34:38.162Z,2.70
2017-08-06T18:51:32.622Z,3.57
2017-08-06T18:54:00.142Z,4.00
2017-08-06T18:56:27.695Z,3.10
2017-08-06T18:58:55.235Z,3.50
2017-08-06T19:01:23.548Z,4.07
2017-08-06T19:03:51.085Z,3.60
2017-08-06T19:06:18.638Z,2.50
2017-08-06T19:08:46.922Z,3.43
2017-08-06T19:11:14.472Z,3.60
2017-08-06T19:13:42.769Z,4.63
2017-08-06T19:16:10.319Z,4.10
2017-08-06T19:18:37.861Z,2.70
2017-08-06T19:21:06.192Z,2.90
2017-08-06T19:23:33.715Z,3.30
2017-08-06T19:26:01.240Z,4.57
2017-08-06T19:28:28.795Z,2.93
2017-08-06T19:30:56.321Z,3.63
2017-08-06T19:33:23.874Z,4.03
2017-08-06T19:35:51.408Z,3.30
2017-08-06T19:38:18.963Z,3.33
2017-08-06T19:40:47.255Z,3.70
2017-08-06T19:43:14.811Z,4.10
2017-08-06T19:45:42.345Z,5.40
2017-08-06T19:48:10.698Z,4.33
2017-08-06T19:50:38.223Z,3.97
2017-08-06T19:53:05.771Z,3.67
2017-08-06T19:55:33.307Z,5.47
2017-08-06T19:58:01.626Z,6.30
2017-08-06T20:00:29.156Z,4.83
2017-08-06T20:02:57.582Z,3.27
2017-08-06T20:05:25.583Z,3.90
2017-08-06T20:07:53.211Z,2.77
2017-08-06T20:10:20.746Z,3.77
2017-08-06T20:12:48.298Z,6.10
2017-08-06T20:15:15.826Z,3.70
2017-08-06T20:17:43.378Z,4.37
2017-08-06T20:20:10.898Z,2.73
2017-08-06T20:22:38.442Z,2.77
2017-08-06T20:25:27.539Z,3.10
2017-08-06T20:27:55.083Z,3.60
2017-08-06T20:30:22.619Z,3.40
2017-08-06T20:32:50.171Z,2.90
2017-08-06T20:35:18.468Z,2.77
2017-08-06T20:37:46.004Z,4.13
2017-08-06T20:40:13.550Z,3.10
2017-08-06T20:42:41.851Z,4.50
2017-08-06T20:45:09.403Z,4.00
2017-08-06T20:47:36.937Z,3.43
2017-08-06T20:50:04.492Z,4.10
2017-08-06T20:52:32.014Z,4.93
2017-08-06T20:54:59.568Z,3.47
2017-08-06T20:57:27.086Z,2.87
2017-08-06T20:59:55.409Z,2.97
2017-08-06T21:02:22.930Z,2.97
2017-08-06T21:04:51.251Z,4.47
2017-08-06T21:07:18.779Z,2.70
2017-08-06T21:09:46.338Z,3.70
2017-08-06T21:12:13.863Z,3.47
2017-08-06T21:14:41.414Z,2.90
2017-08-06T21:17:08.943Z,3.07
2017-08-06T21:19:36.502Z,4.03
2017-08-06T21:22:04.026Z,3.67
2017-08-06T21:24:32.346Z,3.77
2017-08-06T21:26:59.876Z,2.90
2017-08-06T21:29:27.431Z,3.00
2017-08-06T21:31:54.953Z,4.80
2017-08-06T21:34:22.508Z,4.73
2017-08-06T21:36:50.038Z,3.30
2017-08-06T21:39:17.614Z,4.40
2017-08-06T21:41:45.146Z,4.27
2017-08-06T21:44:12.679Z,5.43
2017-08-06T21:46:40.995Z,4.70
2017-08-06T21:49:08.515Z,5.50
2017-08-06T21:51:36.830Z,3.90
2017-08-06T21:54:04.359Z,4.13
2017-08-06T21:56:31.934Z,10.20
2017-08-06T21:58:59.464Z,5.03
2017-08-06T22:01:27.820Z,10.23
2017-08-06T22:03:55.347Z,4.73
2017-08-06T22:06:22.890Z,5.00
2017-08-06T22:08:50.418Z,3.70
2017-08-06T22:11:18.733Z,5.27
2017-08-06T22:13:46.267Z,4.77
2017-08-06T22:16:14.589Z,4.73
2017-08-06T22:18:42.119Z,4.30
2017-08-06T22:21:09.667Z,4.93
2017-08-06T22:23:37.964Z,3.60
2017-08-06T22:26:05.519Z,5.10
2017-08-06T22:28:33.051Z,3.57
2017-08-06T22:51:48.825Z,5.43
2017-08-06T22:54:16.354Z,8.03
2017-08-06T22:56:43.907Z,6.13
2017-08-06T22:59:12.196Z,4.67
2017-08-06T23:01:39.751Z,3.83
2017-08-06T23:04:07.287Z,4.17
2017-08-06T23:06:34.847Z,4.07
2017-08-06T23:09:03.148Z,6.70
2017-08-06T23:11:30.707Z,4.00
2017-08-06T23:13:58.234Z,4.20
2017-08-06T23:16:25.754Z,3.83
2017-08-06T23:18:53.307Z,6.07
2017-08-06T23:21:20.837Z,5.63
2017-08-06T23:23:49.163Z,4.00
2017-08-06T23:26:16.692Z,5.30
2017-08-06T23:28:44.243Z,3.83
2017-08-06T23:31:11.779Z,3.50
2017-08-06T23:33:40.100Z,4.33
2017-08-06T23:36:07.634Z,3.57
2017-08-06T23:38:35.188Z,6.07
2017-08-06T23:41:02.725Z,6.50
2017-08-06T23:43:30.282Z,5.57
2017-08-06T23:45:57.812Z,3.07
2017-08-06T23:48:25.371Z,4.53
2017-08-06T23:50:52.906Z,4.80
2017-08-06T23:53:20.453Z,4.43
2017-08-06T23:55:48.009Z,3.33
2017-08-06T23:58:16.335Z,4.70
